KSUU/SUU METAR and TAF weather

Enter ICAO airport designator
Station Type Date Time Source
KSUU METAR 2021/09/24 01:58 UTC NOAA

KSUU 240158Z AUTO 22010KT 10SM CLR 30/11 A2982 RMK AO2 SLP104 T02950106 $


Station Type Date Time Source
KSUU Decoded METAR 2021/09/24 01:58 UTC NOAA

Fairfield / Travis Air Force Base, CA, United States (KSUU) 38-16N 121-57W 22M
Sep 23, 2021 - 09:58 PM EDT / 2021.09.24 0158 UTC
Wind: from the SW (220 degrees) at 12 MPH (10 KT):0
Visibility: 10 mile(s):0
Sky conditions: clear
Temperature: 85.1 F (29.5 C)
Dew Point: 51.1 F (10.6 C)
Relative Humidity: 30%
Pressure (altimeter): 29.82 in. Hg (1009 hPa)
ob: KSUU 240158Z AUTO 22010KT 10SM CLR 30/11 A2982 RMK AO2 SLP104 T02950106
cycle: 2

Station Type Date Time Source
KSUU TAF 2021/09/23 19:12 UTC NOAA

TAF KSUU 231900Z 2319/2501 36010G15KT 9999 SKC QNH2981INS
BECMG 2322/2323 23010G15KT 9999 SKC QNH2978INS
BECMG 2423/2424 23015G25KT 9999 SKC QNH2980INS TX38/2323Z TN12/2413Z

Example: see airport list